Time;durP1;ratioP1;P1;durP2;ratioP2;P2;SDS_P1;SDS_P2;PMS_P1;PMS_P2;Temp;Humidity;BMP_temperature;BMP_pressure;BME280_temperature;BME280_humidity;BME280_pressure;Samples;Min_cycle;Max_cycle;Signal;HPM_P1;HPM_P2
2021/12/19 00:09:26;;;;;;;12.30;5.30;;;;;;;;;;5055419;28;20059;-69
2021/12/19 00:11:53;;;;;;;10.60;5.00;;;;;;;;;;5055316;28;20485;-69
2021/12/19 00:14:20;;;;;;;14.98;5.68;;;;;;;;;;5054510;28;20072;-69
2021/12/19 00:16:46;;;;;;;10.57;4.68;;;;;;;;;;5055206;28;20075;-69
2021/12/19 00:19:13;;;;;;;11.38;4.93;;;;;;;;;;5055185;28;20098;-69
2021/12/19 00:21:40;;;;;;;9.57;4.47;;;;;;;;;;5054788;28;20024;-69
2021/12/19 00:24:07;;;;;;;8.25;4.18;;;;;;;;;;5055032;28;20021;-70
2021/12/19 00:26:33;;;;;;;12.45;5.85;;;;;;;;;;5054673;28;20159;-69
2021/12/19 00:29:03;;;;;;;16.17;6.82;;;;;;;;;;5054797;28;20075;-69
2021/12/19 00:31:30;;;;;;;10.73;4.88;;;;;;;;;;5055108;28;20021;-69
2021/12/19 00:33:56;;;;;;;10.98;4.40;;;;;;;;;;5054540;28;20028;-69
2021/12/19 00:36:22;;;;;;;10.95;5.82;;;;;;;;;;5036987;28;20139;-69
2021/12/19 00:38:48;;;;;;;12.38;5.30;;;;;;;;;;5054767;28;20065;-70
2021/12/19 00:41:15;;;;;;;14.27;5.88;;;;;;;;;;5054074;28;20334;-71
2021/12/19 00:43:54;;;;;;;13.75;4.95;;;;;;;;;;5054844;28;20022;-70
2021/12/19 00:46:23;;;;;;;8.93;4.72;;;;;;;;;;5053051;28;20086;-70
2021/12/19 00:48:53;;;;;;;14.60;6.65;;;;;;;;;;5054252;28;20090;-70
2021/12/19 00:51:22;;;;;;;13.07;6.20;;;;;;;;;;5054459;28;20070;-69
2021/12/19 00:53:49;;;;;;;13.00;5.60;;;;;;;;;;5054519;28;20033;-70
2021/12/19 00:56:15;;;;;;;12.60;6.70;;;;;;;;;;5054099;28;20059;-70
2021/12/19 00:58:42;;;;;;;12.55;5.25;;;;;;;;;;5053633;28;20036;-68
2021/12/19 01:01:09;;;;;;;12.73;5.95;;;;;;;;;;5054338;28;20032;-70
2021/12/19 01:03:36;;;;;;;10.20;4.65;;;;;;;;;;5053986;28;20025;-69
2021/12/19 01:06:02;;;;;;;15.15;6.05;;;;;;;;;;5036358;28;20029;-70
2021/12/19 01:08:28;;;;;;;10.73;6.13;;;;;;;;;;5054198;28;20021;-70
2021/12/19 01:10:55;;;;;;;13.93;5.85;;;;;;;;;;5053829;28;20043;-71
2021/12/19 01:13:21;;;;;;;12.65;5.38;;;;;;;;;;5053778;28;20025;-70
2021/12/19 01:15:50;;;;;;;7.20;4.10;;;;;;;;;;5054053;28;20031;-69
2021/12/19 01:18:16;;;;;;;11.65;5.05;;;;;;;;;;5054018;28;20017;-70
2021/12/19 01:20:43;;;;;;;9.25;5.00;;;;;;;;;;5053982;28;20366;-70
2021/12/19 01:23:09;;;;;;;10.05;4.63;;;;;;;;;;5053593;28;20032;-70
2021/12/19 01:25:36;;;;;;;9.18;4.78;;;;;;;;;;5053908;28;20079;-71
2021/12/19 01:28:03;;;;;;;27.23;8.90;;;;;;;;;;5053943;28;20515;-69
2021/12/19 01:30:29;;;;;;;21.75;7.47;;;;;;;;;;5053603;28;20100;-70
2021/12/19 01:32:55;;;;;;;18.55;7.50;;;;;;;;;;5053882;28;20039;-70
2021/12/19 01:35:24;;;;;;;12.93;5.93;;;;;;;;;;5053518;28;20041;-70
2021/12/19 01:37:50;;;;;;;15.85;7.85;;;;;;;;;;5035388;28;20025;-69
2021/12/19 01:40:17;;;;;;;14.52;6.38;;;;;;;;;;5053605;28;20025;-69
2021/12/19 01:42:45;;;;;;;12.02;5.07;;;;;;;;;;5053617;28;20100;-70
2021/12/19 01:45:13;;;;;;;11.05;4.38;;;;;;;;;;5053099;28;20036;-70
2021/12/19 01:47:39;;;;;;;10.05;4.78;;;;;;;;;;5053430;28;20453;-70
2021/12/19 01:50:07;;;;;;;7.20;3.45;;;;;;;;;;5053438;28;20032;-70
2021/12/19 01:52:34;;;;;;;8.95;4.57;;;;;;;;;;5053051;28;20031;-69
2021/12/19 01:55:00;;;;;;;7.15;3.72;;;;;;;;;;5053465;28;20037;-69
2021/12/19 01:57:26;;;;;;;6.90;3.60;;;;;;;;;;5053204;28;20494;-69
2021/12/19 01:59:53;;;;;;;9.73;3.45;;;;;;;;;;5053065;28;20078;-69
2021/12/19 02:02:19;;;;;;;7.85;3.55;;;;;;;;;;5053386;28;20021;-69
2021/12/19 02:04:46;;;;;;;7.43;4.43;;;;;;;;;;5053349;28;20537;-70
2021/12/19 02:07:12;;;;;;;7.95;3.65;;;;;;;;;;5052789;28;20091;-69
2021/12/19 02:09:39;;;;;;;6.07;3.30;;;;;;;;;;5053063;28;20109;-70
2021/12/19 02:12:05;;;;;;;7.43;3.97;;;;;;;;;;5052810;28;20029;-70
2021/12/19 02:14:31;;;;;;;8.10;3.75;;;;;;;;;;5052837;28;20077;-69
2021/12/19 02:16:58;;;;;;;7.75;3.17;;;;;;;;;;5053182;28;20048;-70
2021/12/19 02:19:25;;;;;;;5.63;2.97;;;;;;;;;;5034711;28;20180;-70
2021/12/19 02:21:51;;;;;;;8.23;2.92;;;;;;;;;;5053064;28;20024;-69
2021/12/19 02:24:18;;;;;;;7.32;3.50;;;;;;;;;;5053112;28;20385;-70
2021/12/19 02:26:44;;;;;;;5.85;3.40;;;;;;;;;;5052692;28;20033;-69
2021/12/19 02:29:11;;;;;;;8.98;3.80;;;;;;;;;;5052940;28;20104;-70
2021/12/19 02:31:37;;;;;;;5.75;3.22;;;;;;;;;;5053075;28;20028;-69
2021/12/19 02:36:47;;;;;;;6.78;3.47;;;;;;;;;;5052970;28;20025;-69
2021/12/19 02:50:09;;;;;;;6.82;3.58;;;;;;;;;;5052930;28;20504;-69
2021/12/19 02:52:35;;;;;;;8.30;3.22;;;;;;;;;;5052856;28;20100;-69
2021/12/19 02:55:01;;;;;;;7.90;3.20;;;;;;;;;;5052509;28;20195;-69
2021/12/19 02:57:28;;;;;;;7.57;3.70;;;;;;;;;;5052678;28;20025;-70
2021/12/19 02:59:54;;;;;;;6.18;3.55;;;;;;;;;;5052947;28;20074;-70
2021/12/19 03:02:20;;;;;;;10.30;3.67;;;;;;;;;;5052307;28;20025;-70
2021/12/19 03:05:00;;;;;;;11.15;3.97;;;;;;;;;;5052728;28;20083;-69
2021/12/19 03:07:27;;;;;;;9.70;3.28;;;;;;;;;;5052613;28;20029;-69
2021/12/19 03:18:00;;;;;;;11.25;4.32;;;;;;;;;;5052935;28;20091;-69
2021/12/19 03:20:30;;;;;;;9.10;3.50;;;;;;;;;;5052839;28;20027;-69
2021/12/19 03:23:00;;;;;;;8.48;3.58;;;;;;;;;;5055480;28;20043;-70
2021/12/19 03:25:27;;;;;;;10.10;4.35;;;;;;;;;;5056131;28;20021;-70
2021/12/19 03:27:54;;;;;;;8.95;4.32;;;;;;;;;;5056339;28;20056;-69
2021/12/19 03:30:20;;;;;;;8.95;3.88;;;;;;;;;;5055730;28;20503;-69
2021/12/19 03:32:46;;;;;;;12.80;4.82;;;;;;;;;;5056190;28;20036;-70
2021/12/19 03:35:13;;;;;;;10.52;4.82;;;;;;;;;;5055772;28;20028;-69
2021/12/19 03:37:39;;;;;;;7.80;4.18;;;;;;;;;;5037724;28;20025;-70
2021/12/19 03:40:11;;;;;;;9.57;4.07;;;;;;;;;;5055919;28;20021;-70
2021/12/19 03:42:38;;;;;;;8.55;3.58;;;;;;;;;;5056009;28;20021;-70
2021/12/19 03:45:06;;;;;;;8.95;4.55;;;;;;;;;;5037608;28;20381;-70
2021/12/19 03:47:32;;;;;;;8.40;4.28;;;;;;;;;;5055648;28;20473;-69
2021/12/19 03:49:58;;;;;;;8.38;4.35;;;;;;;;;;5055804;28;20029;-69
2021/12/19 03:52:25;;;;;;;7.05;3.63;;;;;;;;;;5055245;28;20092;-69
2021/12/19 03:54:51;;;;;;;6.65;3.33;;;;;;;;;;5055797;28;20139;-69
2021/12/19 03:57:17;;;;;;;7.20;3.75;;;;;;;;;;5055480;28;20359;-70
2021/12/19 03:59:47;;;;;;;9.52;3.88;;;;;;;;;;5055175;28;20029;-69
2021/12/19 04:02:13;;;;;;;10.05;4.28;;;;;;;;;;5055452;28;20547;-69
2021/12/19 04:04:40;;;;;;;9.75;3.63;;;;;;;;;;5055019;28;20112;-69
2021/12/19 04:07:06;;;;;;;14.85;5.60;;;;;;;;;;5055447;28;20029;-69
2021/12/19 04:09:32;;;;;;;11.27;4.97;;;;;;;;;;5055288;28;20025;-70
2021/12/19 04:11:59;;;;;;;9.90;4.85;;;;;;;;;;5055000;28;20056;-69
2021/12/19 04:14:25;;;;;;;9.23;3.75;;;;;;;;;;5055333;28;20049;-70
2021/12/19 04:16:51;;;;;;;8.55;3.70;;;;;;;;;;5037475;28;20025;-70
2021/12/19 04:19:20;;;;;;;7.78;3.58;;;;;;;;;;5054778;28;20025;-70
2021/12/19 04:21:46;;;;;;;7.53;3.17;;;;;;;;;;5055162;28;20025;-69
2021/12/19 04:24:12;;;;;;;7.90;3.55;;;;;;;;;;5055137;28;20021;-69
2021/12/19 04:26:39;;;;;;;7.68;3.40;;;;;;;;;;5036815;28;20029;-70
2021/12/19 04:29:05;;;;;;;8.63;4.28;;;;;;;;;;5037113;28;20545;-69
2021/12/19 04:31:31;;;;;;;5.68;3.63;;;;;;;;;;5054882;28;20025;-69
2021/12/19 04:33:57;;;;;;;10.13;4.30;;;;;;;;;;5054486;28;20024;-69
2021/12/19 04:36:30;;;;;;;8.10;4.15;;;;;;;;;;5054901;28;20033;-69
2021/12/19 04:44:44;;;;;;;12.25;4.50;;;;;;;;;;5054685;28;20028;-70
2021/12/19 04:55:45;;;;;;;9.95;3.60;;;;;;;;;;5054086;28;20030;-69
2021/12/19 05:16:30;;;;;;;8.25;3.83;;;;;;;;;;5053774;28;20055;-70
2021/12/19 05:19:04;;;;;;;10.95;4.95;;;;;;;;;;5054074;28;20113;-69
2021/12/19 05:21:30;;;;;;;7.40;3.90;;;;;;;;;;5053980;28;20033;-69
2021/12/19 05:26:22;;;;;;;10.18;5.00;;;;;;;;;;5053856;28;20027;-69
2021/12/19 05:28:49;;;;;;;12.20;5.20;;;;;;;;;;5054469;28;20420;-70
2021/12/19 05:31:16;;;;;;;12.93;5.53;;;;;;;;;;5053298;28;20017;-70
2021/12/19 05:33:43;;;;;;;11.95;4.45;;;;;;;;;;5053816;28;20044;-70
2021/12/19 05:44:15;;;;;;;12.07;5.13;;;;;;;;;;5052872;28;20485;-70
2021/12/19 05:46:42;;;;;;;10.55;5.65;;;;;;;;;;5035773;28;20040;-70
2021/12/19 05:49:09;;;;;;;11.43;5.75;;;;;;;;;;5035726;28;20104;-69
2021/12/19 05:51:36;;;;;;;10.48;5.60;;;;;;;;;;5053140;28;20025;-69
2021/12/19 05:54:02;;;;;;;10.82;4.97;;;;;;;;;;5053346;28;20078;-68
2021/12/19 05:56:28;;;;;;;12.45;5.82;;;;;;;;;;5053426;28;20024;-69
2021/12/19 05:58:55;;;;;;;14.43;6.43;;;;;;;;;;5052924;28;20025;-69
2021/12/19 06:01:21;;;;;;;14.35;7.45;;;;;;;;;;5053191;28;20036;-69
2021/12/19 06:03:47;;;;;;;14.57;6.90;;;;;;;;;;5053410;28;20481;-72
2021/12/19 06:06:13;;;;;;;12.75;6.32;;;;;;;;;;5035107;28;20120;-69
2021/12/19 06:08:40;;;;;;;14.98;6.75;;;;;;;;;;5053186;28;20031;-68
2021/12/19 06:11:06;;;;;;;21.27;9.65;;;;;;;;;;5053083;28;20413;-69
2021/12/19 06:13:32;;;;;;;22.88;10.68;;;;;;;;;;5052774;28;20519;-68
2021/12/19 06:15:58;;;;;;;18.08;9.55;;;;;;;;;;5053132;28;20036;-68
2021/12/19 06:18:25;;;;;;;14.05;6.47;;;;;;;;;;5052902;28;20049;-69
2021/12/19 06:20:51;;;;;;;20.77;8.07;;;;;;;;;;5053056;28;20477;-69
2021/12/19 06:23:17;;;;;;;12.50;6.72;;;;;;;;;;5052924;28;20021;-69
2021/12/19 06:25:46;;;;;;;16.60;6.93;;;;;;;;;;5052657;28;20473;-69
2021/12/19 06:28:16;;;;;;;17.30;7.82;;;;;;;;;;5053086;28;20096;-68
2021/12/19 06:30:42;;;;;;;14.68;8.18;;;;;;;;;;5053043;28;20111;-69
2021/12/19 06:33:08;;;;;;;14.25;7.15;;;;;;;;;;5034577;28;20522;-69
2021/12/19 06:35:35;;;;;;;15.20;7.78;;;;;;;;;;5053368;28;20041;-70
2021/12/19 06:38:01;;;;;;;16.00;7.95;;;;;;;;;;5052935;28;20024;-70
2021/12/19 06:40:27;;;;;;;13.57;7.13;;;;;;;;;;5052536;28;20029;-70
2021/12/19 06:42:54;;;;;;;21.15;9.75;;;;;;;;;;5052890;28;20017;-70
2021/12/19 06:45:21;;;;;;;22.90;10.05;;;;;;;;;;5052727;28;20078;-70
2021/12/19 06:47:48;;;;;;;20.35;11.43;;;;;;;;;;5052573;28;20033;-73
2021/12/19 06:50:15;;;;;;;18.45;10.00;;;;;;;;;;5052987;28;20517;-72
2021/12/19 06:52:42;;;;;;;21.52;11.95;;;;;;;;;;5052914;28;20478;-72
2021/12/19 06:55:09;;;;;;;20.63;11.52;;;;;;;;;;5052287;28;20033;-74
2021/12/19 06:57:35;;;;;;;27.13;13.98;;;;;;;;;;5055671;28;20025;-71
2021/12/19 07:00:01;;;;;;;29.52;15.57;;;;;;;;;;5056924;28;20426;-71
2021/12/19 07:02:27;;;;;;;24.20;15.35;;;;;;;;;;5038346;28;20424;-70
2021/12/19 07:04:54;;;;;;;25.48;14.95;;;;;;;;;;5056630;28;20052;-70
2021/12/19 07:07:21;;;;;;;26.15;14.75;;;;;;;;;;5056417;28;20025;-71
2021/12/19 07:09:48;;;;;;;21.63;11.90;;;;;;;;;;5056211;28;20021;-70
2021/12/19 07:12:14;;;;;;;24.02;12.75;;;;;;;;;;5056599;28;20021;-71
2021/12/19 07:14:43;;;;;;;24.38;12.50;;;;;;;;;;5055773;28;20048;-71
2021/12/19 07:17:10;;;;;;;26.48;14.00;;;;;;;;;;5056553;28;20431;-69
2021/12/19 07:19:36;;;;;;;29.63;12.73;;;;;;;;;;5056264;28;20022;-70
2021/12/19 07:22:02;;;;;;;27.10;12.70;;;;;;;;;;5055778;28;20025;-72
2021/12/19 07:24:28;;;;;;;32.47;15.50;;;;;;;;;;5056228;28;20037;-68
2021/12/19 07:26:55;;;;;;;23.15;13.48;;;;;;;;;;5056061;28;20055;-70
2021/12/19 07:29:21;;;;;;;32.17;15.32;;;;;;;;;;5037686;28;20492;-70
2021/12/19 07:31:47;;;;;;;30.75;15.18;;;;;;;;;;5056002;28;20035;-70
2021/12/19 07:34:13;;;;;;;23.70;12.68;;;;;;;;;;5021650;28;20036;-70
2021/12/19 07:36:43;;;;;;;20.05;10.98;;;;;;;;;;5037626;28;20033;-69
2021/12/19 07:39:25;;;;;;;23.90;13.73;;;;;;;;;;5055994;28;20032;-69
2021/12/19 07:41:51;;;;;;;17.45;8.48;;;;;;;;;;5056274;28;20075;-70
2021/12/19 07:44:17;;;;;;;24.85;14.27;;;;;;;;;;5055512;28;20096;-69
2021/12/19 07:46:44;;;;;;;21.08;13.23;;;;;;;;;;5055734;28;20025;-70
2021/12/19 07:49:11;;;;;;;20.23;12.18;;;;;;;;;;5055741;28;20025;-70
2021/12/19 07:51:37;;;;;;;20.42;11.68;;;;;;;;;;5037697;28;20040;-70
2021/12/19 07:54:03;;;;;;;21.90;14.30;;;;;;;;;;5055934;28;20477;-71
2021/12/19 07:56:29;;;;;;;32.38;16.20;;;;;;;;;;5055637;28;20039;-70
2021/12/19 07:58:56;;;;;;;27.35;13.68;;;;;;;;;;5055368;28;20574;-71
2021/12/19 08:01:22;;;;;;;26.52;13.55;;;;;;;;;;5055410;28;20025;-71
2021/12/19 08:03:48;;;;;;;23.77;12.25;;;;;;;;;;5055487;28;20096;-70
2021/12/19 08:06:14;;;;;;;22.95;12.70;;;;;;;;;;5055016;28;20036;-71
2021/12/19 08:08:46;;;;;;;23.40;14.30;;;;;;;;;;5055024;28;20032;-71
2021/12/19 08:13:57;;;;;;;22.48;12.10;;;;;;;;;;5055058;28;20114;-70
2021/12/19 08:16:24;;;;;;;17.40;9.45;;;;;;;;;;5037159;28;20029;-71
2021/12/19 08:18:52;;;;;;;17.80;9.27;;;;;;;;;;5054509;28;20025;-71
2021/12/19 08:21:18;;;;;;;15.60;7.28;;;;;;;;;;5054931;28;20411;-70
2021/12/19 08:23:45;;;;;;;14.95;9.57;;;;;;;;;;5054859;28;20022;-70
2021/12/19 08:26:11;;;;;;;18.27;11.52;;;;;;;;;;5054252;28;20025;-71
2021/12/19 08:28:37;;;;;;;19.80;11.55;;;;;;;;;;5054873;28;20099;-71
2021/12/19 08:31:03;;;;;;;19.00;8.98;;;;;;;;;;5054931;28;20036;-71
2021/12/19 08:33:30;;;;;;;17.65;9.77;;;;;;;;;;5036485;28;20044;-70
2021/12/19 08:35:57;;;;;;;19.13;9.27;;;;;;;;;;5055217;28;20061;-71
2021/12/19 08:38:23;;;;;;;16.63;8.50;;;;;;;;;;5036748;28;20055;-71
2021/12/19 08:40:51;;;;;;;20.92;13.32;;;;;;;;;;5054215;28;20029;-70
2021/12/19 08:43:17;;;;;;;22.23;12.18;;;;;;;;;;5054406;28;20477;-70
2021/12/19 08:45:44;;;;;;;18.58;10.98;;;;;;;;;;5054389;28;20018;-70
2021/12/19 08:48:10;;;;;;;20.95;12.55;;;;;;;;;;5054053;28;20037;-70
2021/12/19 08:50:36;;;;;;;20.58;11.00;;;;;;;;;;5054492;28;20096;-70
2021/12/19 08:53:03;;;;;;;33.15;17.20;;;;;;;;;;5054551;28;20021;-70
2021/12/19 08:55:29;;;;;;;24.55;14.38;;;;;;;;;;5053850;28;20036;-71
2021/12/19 08:57:57;;;;;;;19.95;10.07;;;;;;;;;;5054399;28;20535;-70
2021/12/19 09:00:23;;;;;;;20.38;11.23;;;;;;;;;;5053984;28;20104;-70
2021/12/19 09:02:53;;;;;;;21.50;12.32;;;;;;;;;;5054513;28;20027;-70
2021/12/19 09:05:19;;;;;;;28.33;12.73;;;;;;;;;;5054114;28;20595;-71
2021/12/19 09:07:46;;;;;;;23.83;12.02;;;;;;;;;;5054094;28;20024;-70
2021/12/19 09:10:12;;;;;;;17.25;9.70;;;;;;;;;;5054131;28;20023;-71
2021/12/19 09:12:39;;;;;;;21.45;11.50;;;;;;;;;;5054252;28;20039;-71
2021/12/19 09:15:05;;;;;;;15.20;8.90;;;;;;;;;;5035658;28;20064;-70
2021/12/19 09:17:31;;;;;;;16.73;9.48;;;;;;;;;;5053953;28;20541;-70
2021/12/19 09:19:58;;;;;;;22.35;10.98;;;;;;;;;;5053557;28;20105;-70
2021/12/19 09:22:24;;;;;;;18.55;10.48;;;;;;;;;;5053560;28;20032;-70
2021/12/19 09:24:50;;;;;;;27.65;15.20;;;;;;;;;;5053810;28;20033;-70
2021/12/19 09:27:17;;;;;;;14.95;9.35;;;;;;;;;;5053714;28;20017;-71
2021/12/19 09:29:43;;;;;;;18.25;9.65;;;;;;;;;;5053189;28;20025;-72
2021/12/19 09:32:09;;;;;;;17.50;9.77;;;;;;;;;;5053657;28;20567;-70
2021/12/19 09:34:35;;;;;;;17.52;10.70;;;;;;;;;;5053586;28;20037;-70
2021/12/19 09:37:02;;;;;;;15.02;10.20;;;;;;;;;;5053225;28;20128;-70
2021/12/19 09:39:28;;;;;;;14.40;9.55;;;;;;;;;;5053518;28;20025;-70
2021/12/19 09:41:56;;;;;;;17.35;9.35;;;;;;;;;;5054016;28;20021;-70
2021/12/19 09:44:23;;;;;;;14.15;8.05;;;;;;;;;;5053137;28;20020;-70
2021/12/19 09:46:49;;;;;;;17.70;7.80;;;;;;;;;;5053673;28;20024;-69
2021/12/19 09:49:17;;;;;;;14.55;9.20;;;;;;;;;;5053443;28;20455;-70
2021/12/19 09:51:43;;;;;;;23.63;13.40;;;;;;;;;;5053053;28;20434;-70
2021/12/19 09:54:10;;;;;;;24.42;13.55;;;;;;;;;;5053308;28;20394;-70
2021/12/19 09:56:38;;;;;;;21.70;12.07;;;;;;;;;;5052910;28;20017;-70
2021/12/19 09:59:08;;;;;;;15.82;10.18;;;;;;;;;;5053312;28;20354;-70
2021/12/19 10:01:34;;;;;;;20.45;12.10;;;;;;;;;;5052961;28;20017;-70
2021/12/19 10:04:01;;;;;;;24.05;14.05;;;;;;;;;;5052896;28;20056;-69
2021/12/19 10:06:28;;;;;;;17.98;10.88;;;;;;;;;;5053264;28;20104;-71
2021/12/19 10:09:13;;;;;;;23.52;13.43;;;;;;;;;;5053349;28;20150;-70
2021/12/19 10:14:27;;;;;;;29.15;14.35;;;;;;;;;;5052957;28;20211;-70
2021/12/19 10:16:53;;;;;;;16.55;9.30;;;;;;;;;;5053194;28;20389;-70
2021/12/19 10:19:19;;;;;;;17.25;10.15;;;;;;;;;;5034738;28;20017;-70
2021/12/19 10:21:46;;;;;;;17.85;10.95;;;;;;;;;;5053242;28;20457;-70
2021/12/19 10:24:32;;;;;;;24.00;13.35;;;;;;;;;;5035175;28;20370;-70
2021/12/19 10:26:58;;;;;;;22.60;12.27;;;;;;;;;;5053054;28;20078;-70
2021/12/19 10:29:46;;;;;;;17.83;9.68;;;;;;;;;;5035434;28;20496;-70
2021/12/19 10:32:12;;;;;;;24.00;11.85;;;;;;;;;;5056736;28;20499;-70
2021/12/19 10:34:38;;;;;;;31.00;15.63;;;;;;;;;;5057087;28;20075;-70
2021/12/19 10:37:05;;;;;;;25.73;14.98;;;;;;;;;;5057030;28;20517;-70
2021/12/19 10:39:38;;;;;;;25.77;15.57;;;;;;;;;;5056557;28;20029;-70
2021/12/19 10:42:04;;;;;;;44.30;20.38;;;;;;;;;;5057016;28;20036;-70
2021/12/19 10:45:32;;;;;;;25.67;16.05;;;;;;;;;;5057088;28;20032;-71
2021/12/19 10:47:28;;;;;;;23.73;13.05;;;;;;;;;;5042985;28;20033;-71
2021/12/19 10:49:55;;;;;;;23.95;11.32;;;;;;;;;;5056591;28;20024;-69
2021/12/19 10:52:31;;;;;;;18.48;10.65;;;;;;;;;;5039018;28;20101;-69
2021/12/19 10:55:03;;;;;;;26.08;14.15;;;;;;;;;;5056182;28;20477;-70
2021/12/19 10:57:36;;;;;;;19.00;11.05;;;;;;;;;;5056452;28;20033;-70
2021/12/19 11:00:05;;;;;;;18.02;9.35;;;;;;;;;;5056279;28;20036;-70
2021/12/19 11:02:39;;;;;;;21.13;10.32;;;;;;;;;;5056673;28;20025;-71
2021/12/19 11:05:06;;;;;;;14.52;8.80;;;;;;;;;;5056707;28;20112;-70
2021/12/19 11:07:32;;;;;;;14.63;8.63;;;;;;;;;;5038253;28;20029;-70
2021/12/19 11:09:58;;;;;;;11.98;7.50;;;;;;;;;;5056539;28;20094;-71
2021/12/19 11:12:25;;;;;;;19.30;10.70;;;;;;;;;;5056811;28;20053;-70
2021/12/19 11:14:52;;;;;;;29.75;14.77;;;;;;;;;;5055768;28;20128;-71
2021/12/19 11:17:20;;;;;;;31.40;15.63;;;;;;;;;;5056303;28;20465;-71
2021/12/19 11:19:47;;;;;;;51.40;24.00;;;;;;;;;;5056145;28;20108;-71
2021/12/19 11:22:23;;;;;;;24.25;12.32;;;;;;;;;;5056010;28;20056;-70
2021/12/19 11:24:49;;;;;;;31.50;14.48;;;;;;;;;;5056264;28;20032;-71
2021/12/19 11:27:15;;;;;;;17.83;9.98;;;;;;;;;;5055989;28;20474;-71
2021/12/19 11:29:44;;;;;;;18.83;11.50;;;;;;;;;;5055726;28;20036;-70
2021/12/19 11:32:18;;;;;;;17.20;10.57;;;;;;;;;;5056248;28;20427;-71
2021/12/19 11:34:50;;;;;;;23.33;13.40;;;;;;;;;;5056211;28;20401;-71
2021/12/19 11:37:18;;;;;;;22.43;12.17;;;;;;;;;;5055934;28;20436;-70
2021/12/19 11:39:50;;;;;;;14.55;8.57;;;;;;;;;;5056041;28;20473;-70
2021/12/19 11:42:18;;;;;;;16.38;9.50;;;;;;;;;;5054824;28;20048;-71
2021/12/19 11:47:47;;;;;;;25.10;12.88;;;;;;;;;;5055826;28;20037;-69
2021/12/19 11:50:29;;;;;;;24.23;13.05;;;;;;;;;;5055461;28;20531;-70
2021/12/19 11:52:56;;;;;;;25.00;14.55;;;;;;;;;;5055723;28;20032;-69
2021/12/19 11:55:26;;;;;;;24.65;14.90;;;;;;;;;;5055427;28;20033;-71
2021/12/19 11:58:05;;;;;;;28.90;14.90;;;;;;;;;;5055205;28;20079;-69
2021/12/19 12:00:32;;;;;;;26.15;14.38;;;;;;;;;;5055563;28;20125;-70
2021/12/19 12:03:13;;;;;;;21.20;12.57;;;;;;;;;;5055182;28;20013;-70
2021/12/19 12:05:40;;;;;;;26.23;14.75;;;;;;;;;;5055495;28;20394;-70
2021/12/19 12:08:07;;;;;;;21.77;13.07;;;;;;;;;;5055423;28;20060;-70
2021/12/19 12:10:53;;;;;;;24.10;14.20;;;;;;;;;;5055088;28;20021;-70
2021/12/19 12:13:22;;;;;;;22.55;11.35;;;;;;;;;;5055085;28;20055;-70
2021/12/19 12:15:53;;;;;;;23.17;12.00;;;;;;;;;;5037432;28;20029;-70
2021/12/19 12:18:34;;;;;;;18.77;11.88;;;;;;;;;;5054952;28;20028;-69
2021/12/19 12:24:02;;;;;;;16.95;9.40;;;;;;;;;;5000987;28;20460;-70
2021/12/19 12:26:34;;;;;;;21.15;12.15;;;;;;;;;;5055150;28;20009;-69
2021/12/19 12:29:01;;;;;;;24.83;13.63;;;;;;;;;;5055131;28;20426;-70
2021/12/19 12:31:27;;;;;;;20.95;12.70;;;;;;;;;;5054559;28;20020;-70
2021/12/19 12:33:54;;;;;;;14.13;9.55;;;;;;;;;;5054951;28;20060;-71
2021/12/19 12:36:22;;;;;;;14.95;8.30;;;;;;;;;;5054963;28;20086;-70
2021/12/19 12:38:51;;;;;;;18.70;9.52;;;;;;;;;;5054548;28;20024;-71
2021/12/19 12:44:05;;;;;;;12.52;6.53;;;;;;;;;;5054778;28;20029;-71
2021/12/19 12:46:32;;;;;;;13.18;6.65;;;;;;;;;;5054110;28;20053;-70
2021/12/19 12:49:05;;;;;;;12.85;7.10;;;;;;;;;;5054712;28;20025;-70
2021/12/19 12:51:41;;;;;;;15.27;8.18;;;;;;;;;;5054308;28;20493;-70
2021/12/19 12:54:10;;;;;;;18.83;10.93;;;;;;;;;;5053097;28;20032;-70
2021/12/19 12:56:44;;;;;;;14.45;7.38;;;;;;;;;;5036574;28;20028;-70
2021/12/19 12:59:10;;;;;;;45.20;23.55;;;;;;;;;;5054516;28;20465;-70
2021/12/19 13:01:39;;;;;;;22.10;11.88;;;;;;;;;;5054236;28;20389;-70
2021/12/19 13:04:06;;;;;;;20.95;13.02;;;;;;;;;;5054312;28;20492;-70
2021/12/19 13:06:42;;;;;;;27.92;14.90;;;;;;;;;;5053862;28;20377;-70
2021/12/19 13:09:09;;;;;;;24.95;13.07;;;;;;;;;;5054093;28;20031;-70
2021/12/19 13:11:36;;;;;;;22.73;12.98;;;;;;;;;;5054187;28;20372;-70
2021/12/19 13:14:13;;;;;;;22.92;12.32;;;;;;;;;;5053538;28;20402;-70
2021/12/19 13:16:48;;;;;;;26.08;13.40;;;;;;;;;;5054153;28;20473;-70
2021/12/19 13:19:32;;;;;;;34.25;16.85;;;;;;;;;;5053904;28;20037;-70
2021/12/19 13:21:59;;;;;;;25.20;12.85;;;;;;;;;;5053734;28;20032;-70
2021/12/19 13:24:25;;;;;;;27.02;14.57;;;;;;;;;;5054044;28;20139;-70
2021/12/19 13:27:10;;;;;;;23.92;12.90;;;;;;;;;;5053845;28;20025;-70
2021/12/19 13:29:37;;;;;;;23.52;12.88;;;;;;;;;;5035846;28;20017;-70
2021/12/19 13:32:36;;;;;;;30.08;15.25;;;;;;;;;;5053792;28;20024;-70
2021/12/19 13:35:04;;;;;;;34.55;18.02;;;;;;;;;;4982379;28;20390;-70
2021/12/19 13:37:33;;;;;;;27.90;15.52;;;;;;;;;;5053559;28;20029;-71
2021/12/19 13:40:00;;;;;;;29.05;15.65;;;;;;;;;;5053601;28;20025;-70
2021/12/19 13:42:37;;;;;;;29.33;14.98;;;;;;;;;;5053343;28;20094;-70
2021/12/19 13:45:20;;;;;;;24.63;14.60;;;;;;;;;;5053686;28;20025;-70
2021/12/19 13:47:47;;;;;;;24.33;15.68;;;;;;;;;;5053656;28;20040;-70
2021/12/19 13:50:14;;;;;;;21.00;13.18;;;;;;;;;;5053120;28;20032;-70
2021/12/19 13:52:40;;;;;;;27.42;16.33;;;;;;;;;;5053429;28;20104;-70
2021/12/19 13:55:09;;;;;;;30.50;17.17;;;;;;;;;;5053327;28;20041;-70
2021/12/19 13:57:35;;;;;;;29.50;16.92;;;;;;;;;;5052805;28;20024;-70
2021/12/19 14:00:03;;;;;;;33.00;16.95;;;;;;;;;;5053552;28;20025;-70
2021/12/19 14:02:35;;;;;;;23.55;14.88;;;;;;;;;;5053190;28;20540;-70
2021/12/19 14:05:01;;;;;;;24.90;15.60;;;;;;;;;;5052887;28;20458;-70
2021/12/19 14:07:30;;;;;;;26.17;16.20;;;;;;;;;;5053231;28;20024;-70
2021/12/19 14:10:02;;;;;;;26.90;15.82;;;;;;;;;;5052872;28;20017;-70
2021/12/19 14:12:52;;;;;;;28.00;15.65;;;;;;;;;;5053457;28;20017;-70
2021/12/19 14:15:18;;;;;;;34.42;18.67;;;;;;;;;;5052149;28;20464;-70
2021/12/19 14:17:45;;;;;;;33.30;20.52;;;;;;;;;;5052614;28;20045;-70
2021/12/19 14:20:12;;;;;;;35.10;21.92;;;;;;;;;;5053128;28;20021;-69
2021/12/19 14:22:38;;;;;;;36.08;22.50;;;;;;;;;;5035205;28;20363;-70
2021/12/19 14:25:07;;;;;;;38.45;20.98;;;;;;;;;;5052636;28;20033;-70
2021/12/19 14:27:37;;;;;;;31.48;20.38;;;;;;;;;;5034988;28;20492;-70
2021/12/19 14:30:03;;;;;;;29.23;17.80;;;;;;;;;;5053299;28;20067;-70
2021/12/19 14:32:32;;;;;;;37.40;21.17;;;;;;;;;;5052527;28;20036;-70
2021/12/19 14:35:21;;;;;;;39.35;22.98;;;;;;;;;;5034774;28;20116;-70
2021/12/19 14:37:50;;;;;;;42.28;27.67;;;;;;;;;;5039819;28;20136;-70
2021/12/19 14:40:23;;;;;;;47.30;23.60;;;;;;;;;;5052855;28;20025;-70
2021/12/19 14:42:57;;;;;;;41.45;26.50;;;;;;;;;;5052845;28;20074;-70
2021/12/19 14:45:29;;;;;;;41.00;24.33;;;;;;;;;;5052422;28;20434;-70
2021/12/19 14:47:58;;;;;;;53.97;29.23;;;;;;;;;;5052797;28;20052;-70
2021/12/19 14:50:26;;;;;;;44.20;25.98;;;;;;;;;;5052820;28;20036;-70
2021/12/19 14:53:09;;;;;;;34.03;23.02;;;;;;;;;;5052518;28;20044;-70
2021/12/19 14:55:45;;;;;;;39.55;21.65;;;;;;;;;;5052531;28;20203;-70
2021/12/19 14:58:13;;;;;;;34.67;19.05;;;;;;;;;;5052988;28;20080;-69
2021/12/19 15:00:40;;;;;;;38.58;21.23;;;;;;;;;;5052433;28;20380;-70
2021/12/19 15:03:07;;;;;;;42.63;20.67;;;;;;;;;;5052710;28;20104;-69
2021/12/19 15:05:34;;;;;;;47.60;22.60;;;;;;;;;;5052585;28;20037;-70
2021/12/19 15:08:05;;;;;;;40.38;21.05;;;;;;;;;;5052194;28;20071;-70
2021/12/19 15:10:31;;;;;;;36.60;20.42;;;;;;;;;;5052454;28;20025;-70
2021/12/19 15:12:57;;;;;;;38.35;21.30;;;;;;;;;;5052095;28;20096;-69
2021/12/19 15:15:24;;;;;;;43.60;25.60;;;;;;;;;;5052024;28;20118;-69
2021/12/19 15:17:50;;;;;;;42.38;25.48;;;;;;;;;;5054278;28;20033;-69
2021/12/19 15:20:16;;;;;;;33.55;18.45;;;;;;;;;;5055966;28;20033;-70
2021/12/19 15:22:43;;;;;;;36.75;20.92;;;;;;;;;;5038224;28;20021;-69
2021/12/19 15:25:10;;;;;;;38.67;23.42;;;;;;;;;;5056012;28;20082;-69
2021/12/19 15:27:37;;;;;;;38.03;23.35;;;;;;;;;;5055871;28;20021;-69
2021/12/19 15:30:03;;;;;;;40.30;23.50;;;;;;;;;;5056293;28;20075;-70
2021/12/19 15:32:30;;;;;;;36.80;20.20;;;;;;;;;;5055817;28;20032;-70
2021/12/19 15:34:56;;;;;;;30.73;15.98;;;;;;;;;;5055542;28;20443;-70
2021/12/19 15:37:22;;;;;;;30.55;18.73;;;;;;;;;;5055702;28;20025;-70
2021/12/19 15:39:48;;;;;;;33.28;19.05;;;;;;;;;;5056058;28;20035;-70
2021/12/19 15:42:14;;;;;;;38.80;19.25;;;;;;;;;;5037531;28;20489;-70
2021/12/19 15:44:41;;;;;;;35.80;21.38;;;;;;;;;;5055738;28;20473;-70
2021/12/19 15:47:08;;;;;;;35.42;21.38;;;;;;;;;;5055754;28;20025;-70
2021/12/19 15:49:34;;;;;;;51.35;28.58;;;;;;;;;;5055145;28;20040;-70
2021/12/19 15:52:00;;;;;;;32.35;18.98;;;;;;;;;;5055538;28;20060;-70
2021/12/19 15:54:29;;;;;;;27.60;13.00;;;;;;;;;;5055562;28;20068;-70
2021/12/19 15:56:59;;;;;;;29.30;16.65;;;;;;;;;;5055272;28;20036;-69
2021/12/19 15:59:25;;;;;;;37.38;23.33;;;;;;;;;;5055418;28;20025;-70